Strona główna
METAR-TAF:

METAR-TAF

Lotnisko :

Port lotniczy Houston-George Bush

Houston, Teksas, Stany Zjednoczone

Szerokość geograficzna: 29-59-33N, Długość geograficzna: 095-21-50W, wysokość: 29 m

Aktualna obserwacja pogody

Raport powstał 24 minut temu, godzina 02:53 UTC
Wiatr 8 kt od południowo-południowy zachód
Temperatura 31°C
Wilgotność 66%
Ciśnienie 1016 hPa
Widzialność: 16.1 km
Mało chmury na wysokości 4000 ft
Rozproszone chmury na wysokości 25000 ft

METAR: KIAH 180253Z 20008KT 10SM FEW040 SCT250 31/24 A3001 RMK AO2 SLP159 T03060244 53011

czas: 22:17 (03:17 UTC)

Prognoza

Raport powstał 13 minut temu, godzina 03:04 UTC
Prognoza ważna od 18 godzina 03 UTC do 19 godzina 06 UTC
Wiatr 8 kt od południowo-południowy zachód
Widzialność: 10 km
Mało chmury na wysokości 4000 ft
Rozproszone chmury na wysokości 25000 ft
Od 18 godzina 1500 UTC
Wiatr 7 kt od zachodnio-południowy zachód
Widzialność: 10 km
Rozproszone chmury na wysokości 2500 ft

TAF: KIAH 180304Z 1803/1906 20008KT P6SM FEW040 SCT250 FM181500 24007KT P6SM SCT025

Obserwacja i prognoza pogody dla ponad 4000 lotnisk (raport METAR i TAF).

Dostępne stacje oznaczono żółtymi i czerwonymi punktami na mapie.

Najedź kursorem aby zobaczyć nazwę stacji.

Kliknij aby zobaczyć obserwacje i prognozy pogody.

Aby zmienić mapę: kliknij na zielony przycisk z czarnym krzyżykiem, aby powiększyć; na zielony przycisk z myślnikiem, aby pomniejszyć; na zielone strzałki, aby przejść do map sąsiednich.


METAR-TAF: